SBMQ/MCP METAR and TAF weather

Enter ICAO airport designator
Station Type Date Time Source
SBMQ METAR 2021/08/05 04:00 UTC NOAA

SBMQ 050400Z 01003KT CAVOK 28/26 Q1015


Station Type Date Time Source
SBMQ Decoded METAR 2021/08/05 04:00 UTC NOAA

Macapa, Brazil (SBMQ) 00-02N 050-03W
Aug 05, 2021 - 12:00 AM EDT / 2021.08.05 0400 UTC
Wind: from the N (010 degrees) at 3 MPH (3 KT):0
Visibility: greater than 7 mile(s):0
Temperature: 82 F (28 C)
Dew Point: 78 F (26 C)
Relative Humidity: 88%
Pressure (altimeter): 29.97 in. Hg (1015 hPa)
ob: SBMQ 050400Z 01003KT CAVOK 28/26 Q1015
cycle: 4

Station Type Date Time Source
SBMQ TAF 2021/08/05 06:24 UTC NOAA

TAF TAF SBMQ 050300Z 0506/0606 32005KT 8000 SCT015 TN24/0508Z TX34/0518Z
BECMG 0510/0513 03005KT SCT020 FEW027TCU
BECMG 0514/0516 07005KT PROB40
TEMPO 0517/0522 7000 TSRA SCT017 FEW030CB
BECMG 0522/0601 04005KT FEW017
BECMG 0604/0606 32005KT SCT015
RMK PHN

Example: see airport list